createdAt,value
2022-09-20T00:01:06.349Z,2.70
2022-09-20T00:03:34.102Z,3.53
2022-09-20T00:06:02.808Z,5.10
2022-09-20T00:08:30.413Z,3.37
2022-09-20T00:11:03.090Z,3.53
2022-09-20T00:13:31.835Z,2.57
2022-09-20T00:15:59.388Z,2.57
2022-09-20T00:18:27.673Z,3.17
2022-09-20T00:20:55.133Z,3.00
2022-09-20T00:23:22.707Z,5.77
2022-09-20T00:25:57.568Z,2.50
2022-09-20T00:28:27.128Z,1.63
2022-09-20T00:30:55.589Z,2.23
2022-09-20T00:33:24.081Z,1.50
2022-09-20T00:35:50.701Z,1.80
2022-09-20T00:38:18.304Z,1.33
2022-09-20T00:40:45.936Z,5.47
2022-09-20T00:43:15.141Z,3.30
2022-09-20T00:45:44.454Z,3.13
2022-09-20T00:48:14.477Z,3.90
2022-09-20T00:50:44.253Z,7.33
2022-09-20T00:53:14.324Z,2.23
2022-09-20T00:55:45.436Z,3.80
2022-09-20T00:58:13.462Z,1.80
2022-09-20T01:00:41.141Z,2.70
2022-09-20T01:03:11.107Z,4.47
2022-09-20T01:05:39.235Z,10.20
2022-09-20T01:08:07.107Z,5.10
2022-09-20T01:10:34.543Z,3.30
2022-09-20T01:13:01.990Z,4.33
2022-09-20T01:15:31.079Z,3.47
2022-09-20T01:17:59.908Z,3.63
2022-09-20T01:20:30.963Z,4.60
2022-09-20T01:23:15.066Z,5.57
2022-09-20T01:26:18.488Z,3.50
2022-09-20T01:28:48.507Z,5.03
2022-09-20T01:31:18.907Z,7.10
2022-09-20T01:33:49.420Z,4.80
2022-09-20T01:36:20.124Z,3.97
2022-09-20T01:38:53.813Z,3.27
2022-09-20T01:41:25.494Z,4.03
2022-09-20T01:43:56.188Z,4.97
2022-09-20T01:46:30.983Z,3.73
2022-09-20T01:49:09.461Z,4.60
2022-09-20T01:52:17.831Z,5.73
2022-09-20T01:55:01.831Z,4.23
2022-09-20T01:58:07.032Z,7.30
2022-09-20T02:00:40.011Z,3.50
2022-09-20T02:03:24.690Z,7.63
2022-09-20T02:06:12.711Z,5.20
2022-09-20T02:09:08.062Z,5.63
2022-09-20T02:11:54.921Z,6.23
2022-09-20T02:14:32.208Z,12.57
2022-09-20T02:17:08.191Z,3.90
2022-09-20T02:20:00.554Z,7.67
2022-09-20T02:22:36.748Z,5.07
2022-09-20T02:25:13.517Z,6.93
2022-09-20T02:27:48.991Z,5.13
2022-09-20T02:30:33.325Z,3.80
2022-09-20T02:33:21.995Z,3.93
2022-09-20T02:36:08.652Z,6.53
2022-09-20T02:38:43.745Z,2.87
2022-09-20T02:41:27.213Z,2.33
2022-09-20T02:43:59.196Z,5.00
2022-09-20T02:46:31.371Z,6.53
2022-09-20T02:49:04.142Z,2.83
2022-09-20T02:51:37.419Z,3.30
2022-09-20T02:54:13.915Z,5.77
2022-09-20T02:56:46.912Z,3.90
2022-09-20T02:59:23.788Z,2.70
2022-09-20T03:02:00.882Z,5.20
2022-09-20T03:04:38.971Z,6.73
2022-09-20T03:07:11.485Z,5.97
2022-09-20T03:09:44.336Z,6.00
2022-09-20T03:12:19.156Z,5.97
2022-09-20T03:14:51.466Z,6.50
2022-09-20T03:17:23.815Z,6.43
2022-09-20T03:20:06.232Z,5.83
2022-09-20T03:22:42.720Z,5.43
2022-09-20T03:25:26.107Z,5.17
2022-09-20T03:28:02.827Z,6.13
2022-09-20T03:30:40.233Z,3.03
2022-09-20T03:33:13.136Z,4.60
2022-09-20T03:35:56.297Z,5.70
2022-09-20T03:38:34.448Z,5.67
2022-09-20T03:41:11.528Z,5.23
2022-09-20T03:43:53.695Z,8.73
2022-09-20T03:46:23.395Z,6.80
2022-09-20T03:49:28.194Z,4.00
2022-09-20T03:52:02.138Z,7.13
2022-09-20T03:54:47.938Z,4.77
2022-09-20T03:57:36.228Z,3.50
2022-09-20T04:00:10.715Z,3.90
2022-09-20T04:02:52.138Z,5.30
2022-09-20T04:05:25.585Z,5.20
2022-09-20T04:08:04.308Z,4.97
2022-09-20T04:10:40.734Z,4.53
2022-09-20T04:13:18.709Z,4.50
2022-09-20T04:15:57.428Z,7.43
2022-09-20T04:18:31.753Z,9.07
2022-09-20T04:21:04.192Z,4.70
2022-09-20T04:23:40.878Z,7.70
2022-09-20T04:26:08.924Z,6.10
2022-09-20T04:28:41.694Z,10.23
2022-09-20T04:31:26.889Z,7.60
2022-09-20T04:33:57.309Z,10.63
2022-09-20T04:36:50.983Z,5.30
2022-09-20T04:39:29.479Z,9.87
2022-09-20T04:42:28.648Z,5.27
2022-09-20T04:45:13.969Z,15.87
2022-09-20T04:48:13.616Z,6.43
2022-09-20T04:51:04.583Z,6.00
2022-09-20T04:53:58.337Z,11.53
2022-09-20T04:56:41.699Z,7.17
2022-09-20T04:59:10.585Z,10.20
2022-09-20T05:02:30.234Z,6.43
2022-09-20T05:05:40.828Z,7.30
2022-09-20T05:08:48.505Z,5.60
2022-09-20T05:11:57.202Z,7.63
2022-09-20T05:14:48.079Z,10.03
2022-09-20T05:17:25.178Z,4.70
2022-09-20T05:20:13.436Z,9.23
2022-09-20T05:23:04.047Z,9.00
2022-09-20T05:25:45.025Z,7.60
2022-09-20T05:28:21.753Z,5.73
2022-09-20T05:30:51.081Z,9.50
2022-09-20T05:33:22.563Z,8.17
2022-09-20T05:36:02.367Z,11.77
2022-09-20T05:38:35.530Z,5.43
2022-09-20T05:41:13.809Z,6.00
2022-09-20T05:43:51.956Z,8.80
2022-09-20T05:46:27.660Z,9.80
2022-09-20T05:48:58.242Z,6.83
2022-09-20T05:51:48.358Z,6.57
2022-09-20T05:54:35.464Z,8.77
2022-09-20T05:57:16.120Z,9.07
2022-09-20T05:59:57.866Z,8.20
2022-09-20T06:02:36.130Z,5.30
2022-09-20T06:05:11.484Z,6.47
2022-09-20T06:07:51.939Z,7.70
2022-09-20T06:10:43.864Z,10.50
2022-09-20T06:13:25.138Z,5.67
2022-09-20T06:15:59.044Z,9.40
2022-09-20T06:18:28.770Z,10.27
2022-09-20T06:21:03.325Z,10.40
2022-09-20T06:23:31.968Z,11.03
2022-09-20T06:26:03.729Z,14.47
2022-09-20T06:28:34.149Z,7.67
2022-09-20T06:31:07.252Z,12.50
2022-09-20T06:33:34.747Z,10.30
2022-09-20T06:36:21.751Z,8.00
2022-09-20T06:39:12.637Z,9.93
2022-09-20T06:41:40.741Z,12.70
2022-09-20T06:44:08.282Z,7.37
2022-09-20T06:46:38.442Z,5.40
2022-09-20T06:49:08.192Z,7.27
2022-09-20T06:51:37.160Z,7.43
2022-09-20T06:54:06.347Z,12.17
2022-09-20T06:56:36.613Z,7.37
2022-09-20T06:59:04.366Z,7.47
2022-09-20T07:01:32.268Z,8.47
2022-09-20T07:04:01.249Z,7.70
2022-09-20T07:06:29.189Z,7.27
2022-09-20T07:08:56.647Z,5.33
2022-09-20T07:11:24.443Z,7.97
2022-09-20T07:13:53.760Z,9.93
2022-09-20T07:16:21.412Z,6.63
2022-09-20T07:18:49.684Z,14.40
2022-09-20T07:21:19.956Z,5.43
2022-09-20T07:23:48.527Z,9.10
2022-09-20T07:26:19.373Z,7.10
2022-09-20T07:28:47.206Z,8.23
2022-09-20T07:31:14.684Z,8.10
2022-09-20T07:33:42.168Z,6.83
2022-09-20T07:36:12.234Z,7.60
2022-09-20T07:38:41.636Z,7.53
2022-09-20T07:41:10.464Z,6.40
2022-09-20T07:43:38.095Z,12.53
2022-09-20T07:46:05.978Z,7.53
2022-09-20T07:48:35.043Z,9.93
2022-09-20T07:51:08.417Z,9.60
2022-09-20T07:53:36.532Z,5.60
2022-09-20T07:56:07.226Z,8.73
2022-09-20T07:58:36.114Z,7.70
2022-09-20T08:01:05.348Z,8.43
2022-09-20T08:03:33.509Z,8.57
2022-09-20T08:06:01.929Z,6.50
2022-09-20T08:08:32.426Z,12.70
2022-09-20T08:11:05.290Z,7.93
2022-09-20T08:16:24.585Z,6.60
2022-09-20T08:18:54.023Z,6.63
2022-09-20T08:21:22.750Z,5.93
2022-09-20T08:23:50.398Z,4.80
2022-09-20T08:26:20.111Z,6.23
2022-09-20T08:28:52.621Z,4.93
2022-09-20T08:31:21.945Z,3.50
2022-09-20T08:33:50.432Z,6.00
2022-09-20T08:36:19.694Z,7.80
2022-09-20T08:41:38.861Z,4.17
2022-09-20T08:44:13.023Z,8.13
2022-09-20T08:46:43.447Z,3.43
2022-09-20T08:49:16.205Z,4.07
2022-09-20T08:51:48.659Z,3.93
2022-09-20T08:54:16.246Z,4.37
2022-09-20T08:56:44.416Z,4.90
2022-09-20T08:59:16.305Z,4.60
2022-09-20T09:01:43.784Z,7.70
2022-09-20T09:04:14.446Z,4.67
2022-09-20T09:06:42.514Z,4.60
2022-09-20T09:09:17.723Z,4.63
2022-09-20T09:11:46.068Z,4.23
2022-09-20T09:14:41.330Z,4.30
2022-09-20T09:17:10.312Z,4.53
2022-09-20T09:19:44.880Z,5.00
2022-09-20T09:22:13.141Z,6.10
2022-09-20T09:24:40.737Z,3.50
2022-09-20T09:27:14.761Z,4.60
2022-09-20T09:29:51.784Z,6.43
2022-09-20T09:32:23.430Z,4.43
2022-09-20T09:34:51.010Z,5.90
2022-09-20T09:37:28.868Z,5.00
2022-09-20T09:40:16.421Z,4.40
2022-09-20T09:42:52.227Z,3.63
2022-09-20T09:45:31.311Z,5.90
2022-09-20T09:48:01.415Z,3.63
2022-09-20T09:50:31.651Z,6.67
2022-09-20T09:53:02.818Z,3.80
2022-09-20T09:55:43.334Z,3.97
2022-09-20T09:58:21.157Z,3.07
2022-09-20T10:00:50.507Z,1.70
2022-09-20T10:03:29.960Z,6.87
2022-09-20T10:06:05.422Z,4.30
2022-09-20T10:08:43.186Z,4.23
2022-09-20T10:11:23.288Z,3.60
2022-09-20T10:13:56.391Z,2.70
2022-09-20T10:16:31.338Z,4.43
2022-09-20T10:19:03.441Z,5.90
2022-09-20T10:21:44.702Z,2.60
2022-09-20T10:24:19.962Z,2.93
2022-09-20T10:27:03.372Z,4.20
2022-09-20T10:29:41.812Z,1.97
2022-09-20T10:32:21.033Z,4.73
2022-09-20T10:35:02.741Z,2.87
2022-09-20T10:37:34.932Z,1.73
2022-09-20T10:40:10.590Z,2.40
2022-09-20T10:42:59.943Z,3.43
2022-09-20T10:45:59.570Z,4.20
2022-09-20T10:48:26.074Z,2.13
2022-09-20T10:50:59.636Z,3.50
2022-09-20T10:53:31.377Z,2.17
2022-09-20T10:56:07.495Z,1.90
2022-09-20T10:59:17.561Z,3.40
2022-09-20T11:01:54.938Z,2.03
2022-09-20T11:04:46.959Z,3.43
2022-09-20T11:07:19.637Z,2.60
2022-09-20T11:09:50.813Z,3.67
2022-09-20T11:12:24.700Z,3.70
2022-09-20T11:14:55.457Z,1.30
2022-09-20T11:17:26.237Z,5.00
2022-09-20T11:20:04.714Z,4.33
2022-09-20T11:22:40.068Z,3.30
2022-09-20T11:25:19.432Z,4.00
2022-09-20T11:27:51.237Z,4.77
2022-09-20T11:30:20.718Z,3.27
2022-09-20T11:32:50.699Z,5.60
2022-09-20T11:35:30.161Z,4.73
2022-09-20T11:38:06.290Z,5.10
2022-09-20T11:40:36.756Z,5.97
2022-09-20T11:43:07.220Z,8.30
2022-09-20T11:45:35.312Z,5.13
2022-09-20T11:48:05.137Z,2.73
2022-09-20T11:50:50.048Z,2.90
2022-09-20T11:53:28.003Z,4.17
2022-09-20T11:55:59.921Z,2.57
2022-09-20T11:58:27.714Z,5.00
2022-09-20T12:00:57.281Z,4.60
2022-09-20T12:03:32.130Z,4.83
2022-09-20T12:06:02.026Z,3.30
2022-09-20T12:08:32.182Z,3.20
2022-09-20T12:11:04.175Z,6.07
2022-09-20T12:13:32.815Z,2.83
2022-09-20T12:16:03.025Z,3.87
2022-09-20T12:18:37.242Z,2.43
2022-09-20T12:21:15.286Z,3.40
2022-09-20T12:24:04.937Z,2.30
2022-09-20T12:26:43.469Z,2.80
2022-09-20T12:29:53.048Z,2.40
2022-09-20T12:32:45.826Z,4.00
2022-09-20T12:35:56.399Z,2.20
2022-09-20T12:38:49.728Z,6.70
2022-09-20T12:41:27.841Z,5.03
2022-09-20T12:44:03.574Z,2.07
2022-09-20T12:46:34.998Z,3.50
2022-09-20T12:49:47.126Z,4.67
2022-09-20T12:52:53.475Z,4.10
2022-09-20T12:55:46.740Z,1.90
2022-09-20T12:58:35.717Z,2.30
2022-09-20T13:01:32.418Z,2.27
2022-09-20T13:04:37.449Z,3.90
2022-09-20T13:07:43.793Z,4.60
2022-09-20T13:10:29.059Z,2.47
2022-09-20T13:13:02.226Z,3.37
2022-09-20T13:15:31.921Z,1.90
2022-09-20T13:18:01.596Z,1.90
2022-09-20T13:20:31.333Z,5.33
2022-09-20T13:23:00.539Z,2.27
2022-09-20T13:25:28.371Z,3.40
2022-09-20T13:28:03.421Z,2.40
2022-09-20T13:30:32.599Z,4.20
2022-09-20T13:33:15.738Z,3.57
2022-09-20T13:35:44.457Z,2.90
2022-09-20T13:38:11.905Z,2.90
2022-09-20T13:40:42.248Z,4.70
2022-09-20T13:43:24.448Z,2.70
2022-09-20T13:45:54.535Z,3.50
2022-09-20T13:48:25.606Z,4.40
2022-09-20T13:50:53.910Z,7.27
2022-09-20T13:53:40.579Z,2.33
2022-09-20T13:56:11.092Z,2.53
2022-09-20T13:58:39.865Z,3.20
2022-09-20T14:01:09.589Z,2.53
2022-09-20T14:03:37.421Z,1.97
2022-09-20T14:06:08.565Z,4.10
2022-09-20T14:08:38.909Z,2.10
2022-09-20T14:11:07.922Z,5.63
2022-09-20T14:13:41.793Z,4.90
2022-09-20T14:16:09.875Z,2.37
2022-09-20T14:18:38.220Z,2.13
2022-09-20T14:21:07.668Z,4.20
2022-09-20T14:23:50.787Z,3.30
2022-09-20T14:26:27.660Z,3.70
2022-09-20T14:28:56.641Z,2.03
2022-09-20T14:31:26.522Z,3.00
2022-09-20T14:33:55.681Z,1.87
2022-09-20T14:36:24.936Z,3.63
2022-09-20T14:40:08.425Z,2.80
2022-09-20T14:42:37.314Z,2.63
2022-09-20T14:45:07.385Z,2.00
2022-09-20T14:47:40.501Z,2.83
2022-09-20T14:50:24.781Z,5.47
2022-09-20T14:53:26.140Z,3.10
2022-09-20T14:55:59.967Z,2.20
2022-09-20T14:58:27.750Z,4.70
2022-09-20T15:00:59.180Z,1.83
2022-09-20T15:03:28.644Z,3.30
2022-09-20T15:05:56.470Z,1.70
2022-09-20T15:08:24.539Z,2.40
2022-09-20T15:10:52.104Z,1.73
2022-09-20T15:13:19.783Z,1.03
2022-09-20T15:15:50.753Z,2.07
2022-09-20T15:18:22.614Z,1.97
2022-09-20T15:20:50.588Z,1.63
2022-09-20T15:23:18.453Z,8.07
2022-09-20T15:25:46.243Z,1.97
2022-09-20T15:28:17.254Z,2.00
2022-09-20T15:30:44.996Z,2.20
2022-09-20T15:33:13.315Z,1.87
2022-09-20T15:35:43.369Z,2.30
2022-09-20T15:38:11.991Z,1.20
2022-09-20T15:40:40.700Z,2.80
2022-09-20T15:43:09.518Z,2.40
2022-09-20T15:45:37.737Z,1.47
2022-09-20T15:48:05.609Z,0.83
2022-09-20T15:50:33.275Z,1.70
2022-09-20T15:53:02.186Z,1.50
2022-09-20T15:55:29.815Z,2.30
2022-09-20T15:57:57.517Z,1.80
2022-09-20T16:00:25.341Z,0.90
2022-09-20T16:02:52.857Z,1.37
2022-09-20T16:05:20.510Z,1.13
2022-09-20T16:07:48.480Z,1.60
2022-09-20T16:10:17.462Z,1.97
2022-09-20T16:12:45.174Z,1.63
2022-09-20T16:15:12.725Z,1.37
2022-09-20T16:17:57.982Z,1.43
2022-09-20T16:20:25.586Z,1.00
2022-09-20T16:22:53.229Z,0.90
2022-09-20T16:25:22.134Z,2.10
2022-09-20T16:27:49.736Z,2.40
2022-09-20T16:30:17.605Z,1.10
2022-09-20T16:32:46.251Z,1.00
2022-09-20T16:35:13.920Z,1.23
2022-09-20T16:37:41.470Z,1.90
2022-09-20T16:40:11.191Z,4.07
2022-09-20T16:42:40.211Z,2.50
2022-09-20T16:45:08.512Z,2.40
2022-09-20T16:47:41.007Z,1.50
2022-09-20T16:50:11.666Z,1.83
2022-09-20T16:52:39.792Z,1.77
2022-09-20T16:55:10.960Z,1.50
2022-09-20T16:57:39.833Z,2.43
2022-09-20T17:00:08.883Z,1.23
2022-09-20T17:02:36.877Z,1.70
2022-09-20T17:05:05.293Z,2.20
2022-09-20T17:07:33.607Z,2.53
2022-09-20T17:13:03.329Z,3.87
2022-09-20T17:15:31.017Z,3.00
2022-09-20T17:17:58.656Z,4.00
2022-09-20T17:20:29.189Z,1.77
2022-09-20T17:22:56.908Z,2.23
2022-09-20T17:25:30.202Z,1.93
2022-09-20T17:27:58.483Z,1.70
2022-09-20T17:30:27.437Z,2.60
2022-09-20T17:32:55.857Z,2.40
2022-09-20T17:35:23.374Z,5.10
2022-09-20T17:37:52.223Z,3.50
2022-09-20T17:40:19.827Z,2.00
2022-09-20T17:42:47.425Z,3.47
2022-09-20T17:45:16.681Z,2.17
2022-09-20T17:47:45.864Z,4.50
2022-09-20T17:50:15.183Z,1.90
2022-09-20T17:52:42.948Z,2.40
2022-09-20T17:55:11.202Z,1.40
2022-09-20T17:57:39.004Z,2.33
2022-09-20T18:00:07.959Z,2.33
2022-09-20T18:02:35.587Z,2.10
2022-09-20T18:05:04.569Z,2.20
2022-09-20T18:07:34.332Z,2.00
2022-09-20T18:10:02.231Z,2.50
2022-09-20T18:12:29.927Z,3.53
2022-09-20T18:14:57.536Z,2.80
2022-09-20T18:17:27.967Z,1.80
2022-09-20T18:19:55.510Z,2.30
2022-09-20T18:22:24.723Z,2.37
2022-09-20T18:24:52.555Z,2.90
2022-09-20T18:27:20.406Z,2.30
2022-09-20T18:29:48.136Z,3.07
2022-09-20T18:32:16.515Z,2.27
2022-09-20T18:34:44.177Z,7.60
2022-09-20T18:37:14.851Z,4.20
2022-09-20T18:39:44.215Z,5.80
2022-09-20T18:42:11.903Z,3.30
2022-09-20T18:44:40.136Z,2.77
2022-09-20T18:47:07.896Z,2.50
2022-09-20T18:49:35.598Z,2.27
2022-09-20T18:52:03.824Z,4.40
2022-09-20T18:54:33.215Z,1.90
2022-09-20T18:57:06.744Z,3.13
2022-09-20T18:59:34.736Z,2.57
2022-09-20T19:02:18.384Z,4.90
2022-09-20T19:05:08.509Z,2.60
2022-09-20T19:07:43.724Z,2.73
2022-09-20T19:10:19.258Z,1.67
2022-09-20T19:13:02.198Z,2.77
2022-09-20T19:15:54.137Z,2.70
2022-09-20T19:18:36.259Z,2.40
2022-09-20T19:21:14.612Z,3.80
2022-09-20T19:24:03.333Z,2.77
2022-09-20T19:26:32.437Z,3.30
2022-09-20T19:29:02.101Z,2.97
2022-09-20T19:31:31.326Z,6.70
2022-09-20T19:34:01.053Z,3.23
2022-09-20T19:36:38.588Z,2.20
2022-09-20T19:39:11.696Z,2.40
2022-09-20T19:41:48.358Z,2.27
2022-09-20T19:44:26.691Z,3.27
2022-09-20T19:47:03.896Z,3.20
2022-09-20T19:49:41.648Z,3.97
2022-09-20T19:52:11.504Z,3.53
2022-09-20T19:54:42.208Z,2.63
2022-09-20T19:57:19.411Z,4.63
2022-09-20T19:59:49.297Z,2.90
2022-09-20T20:02:17.666Z,4.63
2022-09-20T20:04:46.291Z,6.00
2022-09-20T20:07:21.548Z,2.90
2022-09-20T20:09:53.231Z,2.77
2022-09-20T20:12:26.020Z,3.17
2022-09-20T20:15:04.785Z,2.13
2022-09-20T20:17:46.148Z,2.80
2022-09-20T20:20:23.389Z,3.00
2022-09-20T20:23:05.844Z,1.80
2022-09-20T20:25:37.548Z,5.00
2022-09-20T20:28:05.123Z,2.23
2022-09-20T20:30:44.498Z,4.10
2022-09-20T20:33:14.895Z,2.83
2022-09-20T20:35:42.505Z,2.97
2022-09-20T20:38:11.496Z,2.20
2022-09-20T20:40:40.256Z,2.10
2022-09-20T20:43:09.810Z,3.20
2022-09-20T20:45:40.037Z,1.63
2022-09-20T20:48:09.342Z,5.47
2022-09-20T20:50:37.068Z,2.37
2022-09-20T20:53:06.684Z,2.10
2022-09-20T20:55:34.254Z,2.20
2022-09-20T20:58:01.888Z,3.10
2022-09-20T21:00:57.057Z,3.77
2022-09-20T21:03:43.276Z,4.97
2022-09-20T21:07:28.955Z,5.57
2022-09-20T21:10:18.097Z,4.40
2022-09-20T21:13:12.402Z,2.83
2022-09-20T21:15:42.207Z,3.60
2022-09-20T21:18:13.384Z,5.20
2022-09-20T21:21:02.619Z,3.13
2022-09-20T21:23:34.864Z,4.40
2022-09-20T21:26:09.099Z,2.50
2022-09-20T21:28:37.866Z,2.30
2022-09-20T21:31:10.717Z,2.27
2022-09-20T21:33:40.669Z,7.13
2022-09-20T21:36:09.383Z,4.17
2022-09-20T21:38:37.536Z,2.60
2022-09-20T21:41:11.260Z,3.97
2022-09-20T21:43:41.767Z,2.10
2022-09-20T21:46:18.938Z,1.80
2022-09-20T21:48:47.477Z,4.00
2022-09-20T21:51:16.570Z,4.17
2022-09-20T21:53:44.013Z,5.90
2022-09-20T21:56:13.416Z,3.00
2022-09-20T21:58:41.557Z,2.70
2022-09-20T22:01:11.242Z,2.23
2022-09-20T22:03:41.558Z,3.20
2022-09-20T22:06:11.514Z,3.00
2022-09-20T22:08:40.694Z,3.00
2022-09-20T22:11:12.219Z,2.90
2022-09-20T22:13:42.837Z,4.63
2022-09-20T22:16:12.258Z,2.53
2022-09-20T22:18:42.859Z,4.20
2022-09-20T22:21:11.910Z,2.10
2022-09-20T22:23:49.017Z,3.90
2022-09-20T22:26:21.594Z,5.53
2022-09-20T22:28:56.309Z,2.67
2022-09-20T22:31:27.195Z,3.67
2022-09-20T22:33:58.037Z,3.00
2022-09-20T22:36:27.159Z,3.40
2022-09-20T22:38:55.005Z,2.20
2022-09-20T22:41:26.320Z,3.40
2022-09-20T22:43:53.978Z,2.00
2022-09-20T22:46:23.559Z,3.53
2022-09-20T22:48:51.396Z,2.63
2022-09-20T22:51:21.853Z,2.30
2022-09-20T22:53:49.705Z,3.33
2022-09-20T22:56:21.102Z,2.17
2022-09-20T22:58:50.069Z,2.50
2022-09-20T23:01:23.725Z,1.73
2022-09-20T23:03:55.193Z,2.47
2022-09-20T23:06:27.849Z,1.90
2022-09-20T23:08:57.078Z,2.20
2022-09-20T23:11:25.283Z,2.63
2022-09-20T23:13:54.553Z,1.80
2022-09-20T23:16:24.314Z,2.37
2022-09-20T23:18:53.086Z,2.80
2022-09-20T23:21:21.304Z,2.40
2022-09-20T23:23:53.382Z,4.07
2022-09-20T23:26:21.128Z,4.77
2022-09-20T23:28:55.448Z,6.00
2022-09-20T23:31:23.288Z,3.50
2022-09-20T23:33:52.371Z,2.00
2022-09-20T23:36:20.759Z,4.03
2022-09-20T23:38:50.239Z,1.73
2022-09-20T23:41:20.587Z,2.57
2022-09-20T23:43:48.426Z,3.83
2022-09-20T23:46:17.316Z,5.93
2022-09-20T23:48:45.041Z,4.13
2022-09-20T23:51:13.939Z,2.30
2022-09-20T23:53:41.695Z,2.00
2022-09-20T23:56:11.461Z,2.50
2022-09-20T23:58:39.886Z,4.30
